Thursday, March 05, 2015
00:15 UTC
  |  Log In   |  Register Free
Airport Search:

Orlando Sanford International Airport
(KSFB)

FAA data valid effective January 08, 2015 - March 05, 2015 (unless otherwise noted).

 
 
 
 
 
 
 
 
 
 
 
 
 
 

Current Aviation Weather for Orlando Sanford International Airport (KSFB)

The most recent METAR observation for KSFB was updated at: 0014
METAR Summary (Translated METAR)
KSFB
042353Z 16005KT 10SM CLR 26/17 A3006 RMK AO2 SLP177 T02610172 10300 20261 55000
KORL
042353Z 15005KT 10SM FEW003 BKN060 27/17 A3006 RMK AO2 SLP184 T02670172 10294 20267 55001
(14.8 nm SW from KSFB)
KDED
042355Z AUTO 15004KT A3006 RMK AO1
(17.6 nm NW from KSFB)
TAF Summary (Translated TAF)
KSFB
041751Z 0418/0518 17011G17KT P6SM SCT025 SCT035 FM050100 17005KT P6SM SCT020 SCT030 FM050900 VRB03KT 5SM BR SCT010 SCT025 FM051400 18007KT P6SM SCT025 SCT035
  Airport Weather Conditions for KSFB

 Current Weather at SFB
79° F
Fair
South winds at 5.8 mph
SFB NOAA Radar

Pressure: 30.06 in
Humidity: 58%
Wind: South at 5.8 MPH (5 KT)
Dew Point: 63.0°F
Visibility: 10.00 mi


Airport Weather Forecast for KSFB

Translated METAR and TAF for KSFB
Translated METAR for KSFB (0015 UTC 05 March 2015)
found at http://aviationweather.gov/adds/metars/
 
METAR text: KSFB 042353Z 16005KT 10SM CLR 26/17 A3006 RMK AO2 SLP177 T02610172 10300 20261 55000
Conditions at: KSFB (SANFORD/ORLANDO , FL, US) observed 2353 UTC 04 March 2015
Temperature: 26.1°C (79°F)
Dewpoint: 17.2°C (63°F) [RH = 58%]
Pressure (altimeter): 30.06 inches Hg (1018.0 mb)
[Sea-level pressure: 1017.7 mb]
Winds: from the SSE (160 degrees) at 6 MPH (5 knots; 2.6 m/s)
Visibility: 10 or more miles (16+ km)
Ceiling: at least 12,000 feet AGL
Clouds: sky clear below 12,000 feet AGL
Weather: no significant weather observed at this time
Translated TAF for KSFB
Forecast for: KSFB (SANFORD/ORLANDO , FL, US)
TAF Text: KSFB 042337Z 0500/0524 18008KT P6SM FEW030 SCT050
Forecast period: 0000 to 0100 UTC 05 March 2015
Forecast type: FROM: standard forecast or significant change
Winds: from the S (180 degrees) at 9 MPH (8 knots; 4.2 m/s)
Visibility: 6 or more miles (10+ km)
Clouds: few clouds at 3000 feet AGL
scattered clouds at 5000 feet AGL
Weather: no significant weather forecast for this period
TAF Text: FM050100 18004KT P6SM FEW025 SCT250
Forecast period: 0100 to 0900 UTC 05 March 2015
Forecast type: FROM: standard forecast or significant change
Winds: from the S (180 degrees) at 5 MPH (4 knots; 2.1 m/s)
Visibility: 6 or more miles (10+ km)
Clouds: few clouds at 2500 feet AGL
scattered clouds at 25000 feet AGL
Weather: no significant weather forecast for this period
TAF Text: FM050900 VRB03KT 3SM BR SCT010 BKN025
Forecast period: 0900 to 1400 UTC 05 March 2015
Forecast type: FROM: standard forecast or significant change
Winds: variable direction winds at 3 MPH (3 knots; 1.6 m/s)
Visibility: 3 miles (5 km)
Ceiling: 2500 feet AGL
Clouds: scattered clouds at 1000 feet AGL
broken clouds at 2500 feet AGL
Weather: BR  (mist)
TAF Text: FM051400 18007KT P6SM SCT030
Forecast period: 1400 UTC 05 March 2015 to 0000 UTC 06 March 2015
Forecast type: FROM: standard forecast or significant change
Winds: from the S (180 degrees) at 8 MPH (7 knots; 3.6 m/s)
Visibility: 6 or more miles (10+ km)
Clouds: scattered clouds at 3000 feet AGL
Weather: no significant weather forecast for this period

Find All Airport Services Find A Hotel Find A Rental Car Find A Golf Course Find A Restaurant $100 Hamburger



FBO's on the Field
FBO Company Facility Photos Services Transportation Aviation Fuel Prices: Prices include tax
Catering Weather Repair Courtesy Rental Type 100LL JetA JetA+ MOGAS 8087
 
StarPort

StarPort logo
Currently rated 3.8 by 7 people
FS:
Last Updated: Mar-02
Login to update fuel prices
SS:
Contact StarPortMore FBO Information
 
Million Air Sanford

Currently rated 3.6 by 3 people
FS:Avfuel
Last Updated: Mar-03
Login to update fuel prices
SS:
Contact Million Air SanfordMore FBO Information
 
Add another FBO Facility Photos Catering Weather Repair Courtesy Rental Type 100LL JetA JetA+ MOGAS 8087
Services Transportation Aviation Fuel Prices: Prices include tax


model-print
model-print
model-print
model-print